Time;durP1;ratioP1;P1;durP2;ratioP2;P2;SDS_P1;SDS_P2;PMS_P1;PMS_P2;Temp;Humidity;BMP_temperature;BMP_pressure;BME280_temperature;BME280_humidity;BME280_pressure;Samples;Min_cycle;Max_cycle;Signal;HPM_P1;HPM_P2
2024/02/26 00:01:59;;;;;;;7.22;4.30;;;6.20;99.90;;;;;;8445723;28;20354;-71
2024/02/26 00:06:02;;;;;;;7.38;4.15;;;6.10;99.90;;;;;;8456857;28;20065;-75
2024/02/26 00:10:04;;;;;;;6.60;4.28;;;6.10;99.90;;;;;;8452187;28;20059;-74
2024/02/26 00:14:06;;;;;;;6.60;4.18;;;6.10;99.90;;;;;;8453081;28;20043;-75
2024/02/26 00:18:08;;;;;;;9.05;4.57;;;6.10;99.90;;;;;;8451316;28;20050;-75
2024/02/26 00:22:10;;;;;;;7.60;4.25;;;6.10;99.90;;;;;;8448969;28;20051;-75
2024/02/26 00:26:12;;;;;;;7.20;4.22;;;6.10;99.90;;;;;;8471527;27;20526;-75
2024/02/26 00:30:14;;;;;;;9.25;4.47;;;6.00;99.90;;;;;;8457454;28;20464;-75
2024/02/26 00:34:16;;;;;;;8.25;4.65;;;6.00;99.90;;;;;;8454419;28;20043;-75
2024/02/26 00:38:40;;;;;;;6.50;4.00;;;6.00;99.90;;;;;;8457261;27;20066;-75
2024/02/26 00:42:45;;;;;;;8.27;4.32;;;6.00;99.90;;;;;;8456851;28;20051;-75
2024/02/26 00:46:47;;;;;;;8.25;4.50;;;6.00;99.90;;;;;;8463398;28;20419;-75
2024/02/26 00:50:49;;;;;;;7.03;4.22;;;6.00;99.90;;;;;;8455260;28;20517;-75
2024/02/26 00:54:51;;;;;;;7.57;4.25;;;6.00;99.90;;;;;;8458052;28;20044;-75
2024/02/26 00:58:53;;;;;;;7.10;4.40;;;6.00;99.90;;;;;;8463235;28;20047;-75
2024/02/26 01:02:55;;;;;;;6.55;4.10;;;6.00;99.90;;;;;;8456580;28;20047;-75
2024/02/26 01:06:56;;;;;;;6.88;4.50;;;6.00;99.90;;;;;;8461382;28;20157;-75
2024/02/26 01:15:57;;;;;;;7.72;4.50;;;6.00;99.90;;;;;;8449998;28;20048;-75
2024/02/26 01:19:59;;;;;;;8.60;4.57;;;6.00;99.90;;;;;;8460069;28;20457;-75
2024/02/26 01:24:01;;;;;;;8.32;4.38;;;6.00;99.90;;;;;;8455778;28;20083;-75
2024/02/26 01:28:03;;;;;;;8.70;4.55;;;6.00;99.90;;;;;;8455460;28;20138;-75
2024/02/26 01:32:05;;;;;;;9.20;4.45;;;6.00;99.90;;;;;;8458791;28;20047;-75
2024/02/26 01:36:07;;;;;;;7.43;4.80;;;6.00;99.90;;;;;;8458759;28;20051;-75
2024/02/26 01:40:10;;;;;;;7.68;4.63;;;6.00;99.90;;;;;;8458376;28;20588;-75
2024/02/26 01:44:13;;;;;;;6.90;4.38;;;6.00;99.90;;;;;;8457699;28;20449;-75
2024/02/26 01:48:15;;;;;;;8.05;4.93;;;6.00;99.90;;;;;;8459592;28;20402;-75
2024/02/26 01:52:18;;;;;;;6.55;4.18;;;6.00;99.90;;;;;;8456559;28;20039;-76
2024/02/26 01:56:21;;;;;;;7.65;4.57;;;6.00;99.90;;;;;;8457037;28;20090;-75
2024/02/26 02:00:23;;;;;;;7.97;4.93;;;6.00;99.90;;;;;;8457642;28;20486;-75
2024/02/26 02:04:25;;;;;;;8.73;4.75;;;6.10;99.90;;;;;;8453795;28;20050;-75
2024/02/26 02:08:27;;;;;;;9.45;4.60;;;6.10;99.90;;;;;;8460770;28;20067;-75
2024/02/26 02:12:32;;;;;;;8.00;4.80;;;6.10;99.90;;;;;;8455632;28;20040;-75
2024/02/26 02:16:34;;;;;;;7.97;4.60;;;6.10;99.90;;;;;;8448625;28;20048;-75
2024/02/26 02:20:36;;;;;;;9.02;4.80;;;6.10;99.90;;;;;;8455044;28;21993;-75
2024/02/26 02:24:38;;;;;;;7.60;4.78;;;6.10;99.90;;;;;;8451930;27;20051;-75
2024/02/26 02:28:40;;;;;;;8.52;5.30;;;6.10;99.90;;;;;;8458685;28;20100;-75
2024/02/26 02:32:43;;;;;;;8.50;5.07;;;6.10;99.90;;;;;;8452344;28;20048;-75
2024/02/26 02:37:03;;;;;;;7.35;4.90;;;6.10;99.90;;;;;;8456742;27;20048;-75
2024/02/26 02:41:05;;;;;;;7.93;4.53;;;6.10;99.90;;;;;;8455823;28;20482;-75
2024/02/26 02:45:07;;;;;;;9.02;4.80;;;6.00;99.90;;;;;;8458649;28;20051;-75
2024/02/26 02:49:12;;;;;;;9.02;4.88;;;6.00;99.90;;;;;;8459480;28;20138;-75
2024/02/26 02:53:16;;;;;;;9.40;4.60;;;6.00;99.90;;;;;;8454967;27;20039;-75
2024/02/26 02:57:17;;;;;;;10.50;5.75;;;6.00;99.90;;;;;;8454814;28;20441;-76
2024/02/26 03:01:19;;;;;;;9.00;5.38;;;6.00;99.90;;;;;;8454625;28;20502;-75
2024/02/26 03:05:43;;;;;;;9.85;6.00;;;6.00;99.90;;;;;;8448558;28;20047;-75
2024/02/26 03:09:45;;;;;;;10.25;5.50;;;6.00;99.90;;;;;;8456130;28;20052;-75
2024/02/26 03:13:47;;;;;;;8.68;5.28;;;6.00;99.90;;;;;;8451875;28;20035;-75
2024/02/26 03:17:49;;;;;;;9.52;5.50;;;5.90;99.90;;;;;;8450015;28;20129;-75
2024/02/26 03:21:51;;;;;;;9.13;5.35;;;6.00;99.90;;;;;;8456002;28;20044;-75
2024/02/26 03:25:52;;;;;;;9.88;5.30;;;5.90;99.90;;;;;;8447906;28;20050;-75
2024/02/26 03:29:54;;;;;;;8.88;4.97;;;5.90;99.90;;;;;;8455779;28;20050;-75
2024/02/26 03:33:56;;;;;;;10.70;5.85;;;5.90;99.90;;;;;;8452967;28;20040;-75
2024/02/26 03:37:58;;;;;;;10.02;5.40;;;5.90;99.90;;;;;;8456871;28;20047;-75
2024/02/26 03:42:00;;;;;;;11.63;5.93;;;5.90;99.90;;;;;;8455175;28;20054;-75
2024/02/26 03:46:02;;;;;;;9.18;5.57;;;5.90;99.90;;;;;;8454710;28;20051;-75
2024/02/26 03:50:05;;;;;;;9.68;5.57;;;5.90;99.90;;;;;;8451861;28;20047;-75
2024/02/26 03:54:07;;;;;;;8.73;5.32;;;5.90;99.90;;;;;;8453240;28;20050;-75
2024/02/26 03:58:09;;;;;;;8.73;5.05;;;5.90;99.90;;;;;;8457480;28;20082;-75
2024/02/26 04:02:11;;;;;;;8.80;5.18;;;5.90;99.90;;;;;;8453270;28;20383;-75
2024/02/26 04:06:17;;;;;;;9.10;5.32;;;5.90;99.90;;;;;;8454074;28;20055;-75
2024/02/26 04:11:00;;;;;;;9.52;5.82;;;5.90;99.90;;;;;;8458371;28;20079;-75
2024/02/26 04:15:02;;;;;;;10.77;6.03;;;5.80;99.90;;;;;;8456505;28;20470;-75
2024/02/26 04:19:04;;;;;;;9.27;5.22;;;5.80;99.90;;;;;;8460706;28;20505;-75
2024/02/26 04:23:06;;;;;;;9.43;5.60;;;5.80;99.90;;;;;;8460120;28;20150;-75
2024/02/26 04:27:08;;;;;;;11.63;6.03;;;5.80;99.90;;;;;;8459182;28;20039;-75
2024/02/26 04:31:10;;;;;;;10.27;6.00;;;5.80;99.90;;;;;;8452416;28;20039;-75
2024/02/26 04:35:12;;;;;;;11.75;6.68;;;5.80;99.90;;;;;;8452160;28;20483;-76
2024/02/26 04:39:14;;;;;;;10.75;6.15;;;5.80;99.90;;;;;;8463086;28;20105;-75
2024/02/26 04:43:17;;;;;;;11.10;6.85;;;5.80;99.90;;;;;;8465869;27;20067;-75
2024/02/26 04:47:19;;;;;;;12.13;6.07;;;5.70;99.90;;;;;;8458845;27;20056;-75
2024/02/26 04:51:21;;;;;;;13.05;6.75;;;5.70;99.90;;;;;;8465801;28;20063;-75
2024/02/26 04:55:23;;;;;;;9.90;5.82;;;5.70;99.90;;;;;;8464087;28;20044;-75
2024/02/26 04:59:25;;;;;;;10.05;6.15;;;5.70;99.90;;;;;;8461226;27;20043;-75
2024/02/26 05:03:27;;;;;;;11.02;6.32;;;5.70;99.90;;;;;;8463765;28;20478;-76
2024/02/26 05:07:29;;;;;;;9.98;5.80;;;5.70;99.90;;;;;;8463754;27;20043;-75
2024/02/26 05:11:31;;;;;;;9.85;5.93;;;5.70;99.90;;;;;;8462395;28;20051;-75
2024/02/26 05:15:33;;;;;;;10.98;5.85;;;5.70;99.90;;;;;;8452349;27;20135;-75
2024/02/26 05:19:34;;;;;;;10.43;6.05;;;5.70;99.90;;;;;;8456310;28;20407;-75
2024/02/26 05:23:36;;;;;;;11.05;6.32;;;5.70;99.90;;;;;;8464151;27;20043;-75
2024/02/26 05:27:38;;;;;;;10.70;5.78;;;5.70;99.90;;;;;;8460201;27;20054;-75
2024/02/26 05:31:42;;;;;;;9.98;6.18;;;5.60;99.90;;;;;;8443767;27;20043;-75
2024/02/26 05:35:44;;;;;;;9.15;5.55;;;5.70;99.90;;;;;;8478517;27;20453;-75
2024/02/26 05:39:46;;;;;;;12.18;5.45;;;5.70;99.90;;;;;;8459521;27;20071;-75
2024/02/26 05:43:49;;;;;;;10.25;4.90;;;5.70;99.90;;;;;;8459349;27;20120;-76
2024/02/26 05:47:51;;;;;;;9.68;5.70;;;5.70;99.90;;;;;;8458184;27;20077;-75
2024/02/26 05:51:53;;;;;;;9.32;5.38;;;5.70;99.90;;;;;;8460099;27;20089;-76
2024/02/26 05:55:55;;;;;;;9.55;5.88;;;5.70;99.90;;;;;;8478378;27;20040;-75
2024/02/26 06:00:00;;;;;;;11.88;5.85;;;5.70;99.90;;;;;;8454432;28;20040;-75
2024/02/26 06:04:02;;;;;;;8.35;5.47;;;5.70;99.90;;;;;;8460251;28;20051;-75
2024/02/26 06:08:05;;;;;;;12.00;6.28;;;5.70;99.90;;;;;;8458813;27;20082;-75
2024/02/26 06:12:07;;;;;;;10.27;5.80;;;5.80;99.90;;;;;;8460684;27;20079;-75
2024/02/26 06:16:09;;;;;;;10.75;5.90;;;5.80;99.90;;;;;;8449361;27;20537;-75
2024/02/26 06:20:12;;;;;;;11.27;6.38;;;5.80;99.90;;;;;;8454684;27;20050;-76
2024/02/26 06:24:14;;;;;;;12.23;5.95;;;5.80;99.90;;;;;;8459969;28;20051;-75
2024/02/26 06:28:16;;;;;;;12.05;6.30;;;5.80;99.90;;;;;;8486592;27;20566;-76
2024/02/26 06:32:18;;;;;;;10.75;6.13;;;5.70;99.90;;;;;;8455726;27;20048;-75
2024/02/26 06:36:20;;;;;;;10.50;6.38;;;5.70;99.90;;;;;;8457702;28;20044;-75
2024/02/26 06:40:22;;;;;;;10.95;6.40;;;5.70;99.90;;;;;;8456650;28;20380;-75
2024/02/26 06:44:24;;;;;;;10.18;5.88;;;5.70;99.90;;;;;;8455937;28;20442;-75
2024/02/26 06:48:26;;;;;;;11.02;6.55;;;5.70;99.90;;;;;;8462696;27;20103;-75
2024/02/26 06:52:28;;;;;;;10.88;5.90;;;5.70;99.90;;;;;;8455487;28;20067;-75
2024/02/26 06:56:30;;;;;;;12.95;6.78;;;5.80;99.90;;;;;;8451611;28;20059;-75
2024/02/26 07:00:32;;;;;;;12.63;6.75;;;5.80;99.90;;;;;;8463215;27;20040;-76
2024/02/26 07:04:34;;;;;;;12.05;6.22;;;5.80;99.90;;;;;;8460757;28;20096;-75
2024/02/26 07:08:36;;;;;;;12.82;6.85;;;5.80;99.90;;;;;;8458611;27;20047;-76
2024/02/26 07:12:38;;;;;;;11.27;6.28;;;5.80;99.90;;;;;;8454950;28;20101;-75
2024/02/26 07:16:40;;;;;;;12.88;7.07;;;5.80;99.90;;;;;;8454294;28;20043;-75
2024/02/26 07:20:42;;;;;;;15.30;6.85;;;5.80;99.90;;;;;;8456864;27;20054;-75
2024/02/26 07:24:44;;;;;;;11.88;6.65;;;5.80;99.90;;;;;;8473159;27;20069;-75
2024/02/26 07:28:46;;;;;;;14.57;7.55;;;5.80;99.90;;;;;;8458549;28;20051;-75
2024/02/26 07:32:48;;;;;;;12.93;7.03;;;5.80;99.90;;;;;;8457365;28;20050;-75
2024/02/26 07:36:52;;;;;;;12.43;6.88;;;5.80;99.90;;;;;;8457828;27;20146;-75
2024/02/26 07:40:54;;;;;;;14.55;7.10;;;5.80;99.90;;;;;;8458284;28;20044;-75
2024/02/26 07:45:04;;;;;;;14.02;7.70;;;5.80;99.90;;;;;;8443356;28;20051;-75
2024/02/26 07:49:06;;;;;;;15.77;8.27;;;5.90;99.90;;;;;;8457953;28;20048;-75
2024/02/26 07:53:08;;;;;;;16.10;8.27;;;5.90;99.90;;;;;;8457289;28;20547;-75
2024/02/26 07:57:09;;;;;;;16.83;8.73;;;5.90;99.90;;;;;;8454970;28;20047;-75
2024/02/26 08:01:14;;;;;;;16.70;8.00;;;5.90;99.90;;;;;;8460070;28;20474;-75
2024/02/26 08:05:16;;;;;;;16.05;7.82;;;5.90;99.90;;;;;;8458925;28;20043;-75
2024/02/26 08:09:18;;;;;;;15.88;7.88;;;5.90;99.90;;;;;;8458821;28;20059;-75
2024/02/26 08:13:19;;;;;;;16.80;8.45;;;5.90;99.90;;;;;;8457347;28;20134;-75
2024/02/26 08:17:21;;;;;;;17.25;9.23;;;6.00;99.90;;;;;;8445580;28;20047;-75
2024/02/26 08:21:23;;;;;;;17.90;8.70;;;5.90;99.90;;;;;;8456866;28;20039;-75
2024/02/26 08:25:25;;;;;;;16.95;8.73;;;6.00;99.90;;;;;;8454725;28;20520;-75
2024/02/26 08:29:27;;;;;;;19.70;9.93;;;6.00;99.90;;;;;;8455851;28;20048;-75
2024/02/26 08:33:29;;;;;;;17.48;8.95;;;6.00;99.90;;;;;;8457350;28;20086;-76
2024/02/26 08:37:31;;;;;;;18.33;9.15;;;6.00;99.90;;;;;;8453879;28;20051;-75
2024/02/26 08:41:33;;;;;;;16.80;9.43;;;6.10;99.90;;;;;;8456160;28;20487;-75
2024/02/26 08:45:35;;;;;;;19.38;8.98;;;6.10;99.90;;;;;;8456447;28;20094;-75
2024/02/26 08:49:37;;;;;;;16.48;8.98;;;6.20;99.90;;;;;;8455584;28;20039;-75
2024/02/26 08:53:39;;;;;;;18.63;10.07;;;6.20;99.90;;;;;;8462973;28;20044;-75
2024/02/26 08:57:44;;;;;;;15.85;9.32;;;6.20;99.90;;;;;;8456159;28;20048;-75
2024/02/26 09:01:46;;;;;;;14.70;8.13;;;6.20;99.90;;;;;;8458863;28;20055;-75
2024/02/26 09:05:49;;;;;;;13.38;7.57;;;6.20;99.90;;;;;;8462223;28;20048;-75
2024/02/26 09:09:50;;;;;;;14.57;8.05;;;6.10;99.90;;;;;;8462603;28;20054;-75
2024/02/26 09:13:52;;;;;;;13.07;7.78;;;6.10;99.90;;;;;;8459840;27;20062;-75
2024/02/26 09:17:54;;;;;;;13.50;7.18;;;6.10;99.90;;;;;;8454487;28;20131;-75
2024/02/26 09:21:57;;;;;;;12.00;7.13;;;6.10;99.90;;;;;;8458760;28;20448;-75
2024/02/26 09:25:59;;;;;;;13.77;7.20;;;6.10;99.90;;;;;;8464088;27;20401;-75
2024/02/26 09:30:01;;;;;;;11.85;6.68;;;6.20;99.90;;;;;;8462030;28;20521;-75
2024/02/26 09:34:04;;;;;;;10.90;6.13;;;6.20;99.90;;;;;;8458610;28;20474;-75
2024/02/26 09:38:06;;;;;;;12.98;6.70;;;6.10;99.90;;;;;;8461386;28;20048;-75
2024/02/26 09:42:12;;;;;;;10.82;6.38;;;6.10;99.90;;;;;;8457011;28;20104;-75
2024/02/26 09:46:15;;;;;;;10.88;6.07;;;6.20;99.90;;;;;;8454838;28;20090;-75
2024/02/26 09:50:22;;;;;;;9.05;5.75;;;6.20;99.90;;;;;;8460587;28;20044;-75
2024/02/26 09:54:28;;;;;;;11.93;6.15;;;6.10;99.90;;;;;;8459038;28;20040;-75
2024/02/26 09:58:30;;;;;;;12.52;6.45;;;6.10;99.90;;;;;;8460416;28;20096;-75
2024/02/26 10:02:34;;;;;;;9.93;5.40;;;6.10;99.90;;;;;;8457576;28;20048;-75
2024/02/26 10:06:37;;;;;;;9.43;5.10;;;6.10;99.90;;;;;;8452820;28;20063;-75
2024/02/26 10:10:39;;;;;;;10.70;5.03;;;6.20;99.90;;;;;;8458634;28;20069;-76
2024/02/26 10:14:40;;;;;;;10.35;5.80;;;6.20;99.90;;;;;;8453367;28;20055;-75
2024/02/26 10:18:47;;;;;;;8.52;5.00;;;6.20;99.90;;;;;;8457156;28;20062;-75
2024/02/26 10:22:52;;;;;;;9.05;4.80;;;6.20;99.90;;;;;;8456917;28;20052;-75
2024/02/26 10:26:55;;;;;;;9.82;4.93;;;6.20;99.90;;;;;;8457367;28;20100;-75
2024/02/26 10:30:57;;;;;;;10.10;5.13;;;6.20;99.90;;;;;;8459734;28;20129;-75
2024/02/26 10:34:59;;;;;;;9.07;4.82;;;6.20;99.90;;;;;;8452251;28;20047;-75
2024/02/26 10:39:05;;;;;;;7.90;4.45;;;6.20;99.90;;;;;;8457742;28;20050;-75
2024/02/26 10:43:07;;;;;;;8.93;4.65;;;6.20;99.90;;;;;;8459384;28;20090;-75
2024/02/26 10:47:09;;;;;;;7.95;4.55;;;6.20;99.90;;;;;;8457026;28;20055;-75
2024/02/26 10:51:13;;;;;;;8.38;4.18;;;6.20;99.90;;;;;;8453372;28;20062;-75
2024/02/26 10:55:19;;;;;;;10.13;4.72;;;6.20;99.90;;;;;;8457882;28;20438;-76
2024/02/26 10:59:22;;;;;;;8.95;4.70;;;6.30;99.90;;;;;;8458203;27;20512;-75
2024/02/26 11:03:25;;;;;;;10.88;5.20;;;6.30;99.90;;;;;;8458011;28;20048;-75
2024/02/26 11:07:29;;;;;;;8.35;4.85;;;6.40;99.90;;;;;;8458046;27;20063;-75
2024/02/26 11:11:34;;;;;;;9.68;4.70;;;6.50;99.90;;;;;;8456553;28;20051;-75
2024/02/26 11:15:36;;;;;;;8.13;4.57;;;6.50;99.90;;;;;;8449316;28;20051;-75
2024/02/26 11:19:41;;;;;;;8.23;5.07;;;6.60;99.90;;;;;;8452035;28;20086;-75
2024/02/26 11:23:44;;;;;;;9.27;5.05;;;6.60;99.90;;;;;;8459654;28;20109;-75
2024/02/26 11:28:01;;;;;;;8.63;4.63;;;6.60;99.90;;;;;;8447121;28;20494;-75
2024/02/26 11:32:03;;;;;;;8.52;4.55;;;6.60;99.90;;;;;;8458181;27;20439;-75
2024/02/26 11:36:13;;;;;;;8.13;4.53;;;6.60;99.90;;;;;;8451086;28;20040;-75
2024/02/26 11:40:17;;;;;;;7.55;4.45;;;6.60;99.90;;;;;;8448312;28;20035;-75
2024/02/26 11:44:30;;;;;;;9.80;4.93;;;6.60;99.90;;;;;;8451962;28;20101;-75
2024/02/26 11:48:32;;;;;;;8.55;4.78;;;6.60;99.90;;;;;;8446639;28;20125;-75
2024/02/26 11:52:34;;;;;;;10.48;4.75;;;6.60;99.90;;;;;;8450095;28;20058;-75
2024/02/26 11:56:40;;;;;;;9.43;4.72;;;6.60;99.90;;;;;;8449013;28;20676;-75
2024/02/26 12:00:42;;;;;;;9.25;4.75;;;6.60;99.90;;;;;;8449653;28;20059;-75
2024/02/26 12:04:44;;;;;;;8.55;4.22;;;6.60;99.90;;;;;;8450534;28;20074;-75
2024/02/26 12:08:46;;;;;;;8.88;5.28;;;6.60;99.90;;;;;;8456063;28;20110;-75
2024/02/26 12:12:49;;;;;;;9.90;5.18;;;6.60;99.90;;;;;;8452935;28;20112;-75
2024/02/26 12:16:52;;;;;;;9.13;4.93;;;6.70;99.90;;;;;;8432045;28;20047;-75
2024/02/26 12:21:04;;;;;;;8.63;4.97;;;6.70;99.90;;;;;;8428588;28;20035;-76
2024/02/26 12:25:09;;;;;;;11.18;5.20;;;6.80;99.90;;;;;;8424239;28;20083;-75
2024/02/26 12:29:12;;;;;;;7.65;4.68;;;6.80;99.90;;;;;;8439656;28;20605;-75
2024/02/26 12:33:13;;;;;;;9.23;5.28;;;6.80;99.90;;;;;;8442758;28;20407;-75
2024/02/26 12:37:16;;;;;;;9.13;5.00;;;6.80;99.90;;;;;;8437603;28;20130;-75
2024/02/26 12:41:18;;;;;;;8.82;4.82;;;6.90;99.90;;;;;;8432643;28;20313;-75
2024/02/26 12:45:20;;;;;;;8.48;4.65;;;6.90;99.90;;;;;;8443604;27;20121;-75
2024/02/26 12:49:22;;;;;;;9.45;5.30;;;6.90;99.90;;;;;;8439902;28;20406;-75
2024/02/26 12:53:25;;;;;;;10.63;5.32;;;6.90;99.90;;;;;;8432999;27;20044;-75
2024/02/26 12:57:29;;;;;;;8.52;4.82;;;7.00;99.90;;;;;;8427621;28;20040;-75
2024/02/26 13:01:32;;;;;;;7.55;4.15;;;6.90;99.90;;;;;;8429198;28;20036;-75
2024/02/26 13:05:34;;;;;;;7.85;4.80;;;6.90;99.90;;;;;;8428572;28;20583;-75
2024/02/26 13:09:36;;;;;;;9.40;5.13;;;6.90;99.90;;;;;;8465228;27;20117;-75
2024/02/26 13:13:38;;;;;;;10.75;5.32;;;7.00;99.90;;;;;;8431153;27;20105;-76
2024/02/26 13:17:40;;;;;;;8.52;4.57;;;7.00;99.90;;;;;;8432023;28;20059;-75
2024/02/26 13:21:42;;;;;;;9.00;4.63;;;7.10;99.90;;;;;;8434928;27;20105;-75
2024/02/26 13:25:44;;;;;;;8.55;5.22;;;7.10;99.90;;;;;;8431811;27;20109;-76
2024/02/26 13:29:46;;;;;;;8.32;4.80;;;7.10;99.90;;;;;;8445767;27;20055;-76
2024/02/26 13:33:49;;;;;;;8.25;4.88;;;7.10;99.90;;;;;;8443784;27;20039;-76
2024/02/26 13:37:51;;;;;;;8.55;4.55;;;7.20;99.90;;;;;;8442380;28;20123;-75
2024/02/26 13:41:54;;;;;;;8.13;4.78;;;7.20;99.90;;;;;;8427906;28;20096;-75
2024/02/26 13:45:56;;;;;;;10.15;5.15;;;7.20;99.90;;;;;;8440349;28;20799;-75
2024/02/26 13:49:58;;;;;;;8.93;4.65;;;7.20;99.90;;;;;;8433742;28;20058;-75
2024/02/26 13:54:00;;;;;;;9.50;4.80;;;7.30;99.90;;;;;;8430841;28;20075;-75
2024/02/26 13:58:02;;;;;;;8.57;4.35;;;7.20;99.90;;;;;;8431210;28;20086;-76
2024/02/26 14:02:05;;;;;;;8.48;4.53;;;7.20;99.90;;;;;;8429409;28;20044;-75
2024/02/26 14:06:07;;;;;;;9.38;5.05;;;7.20;99.90;;;;;;8431931;28;20044;-75
2024/02/26 14:10:12;;;;;;;9.00;4.50;;;7.20;99.90;;;;;;8432888;28;20043;-75
2024/02/26 14:14:14;;;;;;;8.27;4.65;;;7.20;99.90;;;;;;8428576;28;20717;-75
2024/02/26 14:18:17;;;;;;;9.40;4.30;;;7.20;99.90;;;;;;8432248;28;20044;-75
2024/02/26 14:22:18;;;;;;;10.50;4.70;;;7.20;99.90;;;;;;8435166;28;20059;-75
2024/02/26 14:26:20;;;;;;;8.27;4.85;;;7.30;99.90;;;;;;8431505;28;20047;-75
2024/02/26 14:30:22;;;;;;;7.75;4.43;;;7.30;99.90;;;;;;8425943;28;20044;-76
2024/02/26 14:34:24;;;;;;;8.90;4.93;;;7.30;99.90;;;;;;8431012;28;20040;-75
2024/02/26 14:38:26;;;;;;;7.13;4.45;;;7.30;99.90;;;;;;8428275;28;20044;-75
2024/02/26 14:42:29;;;;;;;8.25;4.15;;;7.30;99.90;;;;;;8429881;28;20483;-75
2024/02/26 14:46:30;;;;;;;11.82;4.28;;;7.40;99.90;;;;;;8432348;28;20736;-75
2024/02/26 14:50:32;;;;;;;8.50;4.30;;;7.40;99.90;;;;;;8436125;28;20044;-75
2024/02/26 14:54:38;;;;;;;7.50;3.92;;;7.40;99.90;;;;;;8423839;28;20052;-75
2024/02/26 14:58:40;;;;;;;6.55;3.90;;;7.40;99.90;;;;;;8428093;28;20048;-75
2024/02/26 15:02:42;;;;;;;6.78;3.88;;;7.40;99.90;;;;;;8426102;28;20466;-75
2024/02/26 15:06:44;;;;;;;6.47;3.95;;;7.40;99.90;;;;;;8434008;28;20052;-75
2024/02/26 15:10:49;;;;;;;8.30;4.55;;;7.40;99.90;;;;;;8428746;28;20089;-75
2024/02/26 15:14:51;;;;;;;7.15;4.00;;;7.30;99.90;;;;;;8424881;28;20051;-75
2024/02/26 15:18:52;;;;;;;6.72;3.75;;;7.30;99.90;;;;;;8438102;28;20502;-75
2024/02/26 15:22:54;;;;;;;6.53;3.60;;;7.30;99.90;;;;;;8428100;28;20048;-75
2024/02/26 15:26:57;;;;;;;6.30;3.05;;;7.30;99.90;;;;;;8432669;28;20438;-75
2024/02/26 15:30:59;;;;;;;7.63;3.47;;;7.20;99.90;;;;;;8431764;28;20043;-75
2024/02/26 15:35:00;;;;;;;5.57;3.03;;;7.20;99.90;;;;;;8430440;28;20411;-75
2024/02/26 15:39:03;;;;;;;7.15;3.50;;;7.20;99.90;;;;;;8436310;28;20404;-76
2024/02/26 15:43:05;;;;;;;7.53;3.90;;;7.20;99.90;;;;;;8429292;28;20044;-75
2024/02/26 15:47:07;;;;;;;7.18;3.40;;;7.20;99.90;;;;;;8441346;28;20491;-75
2024/02/26 15:51:19;;;;;;;5.40;2.85;;;7.20;99.90;;;;;;8425173;28;20052;-75
2024/02/26 15:55:21;;;;;;;7.18;3.35;;;7.20;99.90;;;;;;8427594;28;20047;-75
2024/02/26 15:59:24;;;;;;;6.72;3.00;;;7.20;99.90;;;;;;8429505;28;20483;-75
2024/02/26 16:03:26;;;;;;;6.95;3.58;;;7.30;99.90;;;;;;8441425;28;20044;-75
2024/02/26 16:07:34;;;;;;;8.45;3.80;;;7.30;99.90;;;;;;8441245;28;20107;-75
2024/02/26 16:11:36;;;;;;;7.47;3.67;;;7.30;99.90;;;;;;8433330;28;20047;-75
2024/02/26 16:15:42;;;;;;;7.22;3.80;;;7.30;99.90;;;;;;8447367;27;20483;-75
2024/02/26 16:19:44;;;;;;;8.00;4.07;;;7.20;99.90;;;;;;8428251;28;20044;-75
2024/02/26 16:23:46;;;;;;;6.35;3.35;;;7.20;99.90;;;;;;8443838;27;20105;-75
2024/02/26 16:27:48;;;;;;;7.53;3.90;;;7.10;99.90;;;;;;8430722;27;20052;-75
2024/02/26 16:31:50;;;;;;;8.48;4.07;;;7.10;99.90;;;;;;8430152;27;20092;-75
2024/02/26 16:35:53;;;;;;;6.97;3.72;;;7.10;99.90;;;;;;8438709;27;20044;-76
2024/02/26 16:39:59;;;;;;;7.10;3.78;;;7.00;99.90;;;;;;8443099;27;20051;-75
2024/02/26 16:44:01;;;;;;;8.18;4.40;;;7.00;99.90;;;;;;8442435;28;20399;-75
2024/02/26 16:48:03;;;;;;;7.85;3.97;;;6.90;99.90;;;;;;8437059;28;20039;-75
2024/02/26 16:52:06;;;;;;;9.23;3.72;;;6.80;99.90;;;;;;8434514;28;20050;-75
2024/02/26 16:56:11;;;;;;;9.18;4.60;;;6.70;99.90;;;;;;8440745;27;20051;-75
2024/02/26 17:00:15;;;;;;;8.93;4.15;;;6.50;99.90;;;;;;8429003;28;20526;-75
2024/02/26 17:04:17;;;;;;;7.65;4.22;;;6.50;99.90;;;;;;8425877;28;20040;-75
2024/02/26 17:08:20;;;;;;;9.52;4.70;;;6.40;99.90;;;;;;8436519;27;20043;-75
2024/02/26 17:12:22;;;;;;;8.95;4.60;;;6.30;99.90;;;;;;8433220;28;20506;-75
2024/02/26 17:16:24;;;;;;;9.00;4.25;;;6.20;99.90;;;;;;8440489;27;20044;-75
2024/02/26 17:20:26;;;;;;;7.72;4.18;;;6.20;99.90;;;;;;8425044;27;20099;-75
2024/02/26 17:24:28;;;;;;;7.28;4.15;;;6.20;99.90;;;;;;8433513;28;20055;-75
2024/02/26 17:28:30;;;;;;;7.95;4.38;;;6.10;99.90;;;;;;8443673;28;20379;-75
2024/02/26 17:32:32;;;;;;;9.55;4.68;;;6.10;99.90;;;;;;8433099;28;20089;-75
2024/02/26 17:36:35;;;;;;;7.50;3.95;;;6.00;99.90;;;;;;8427016;28;20080;-75
2024/02/26 17:40:37;;;;;;;8.80;4.60;;;6.00;99.90;;;;;;8442592;28;20414;-75
2024/02/26 17:44:39;;;;;;;11.55;4.70;;;6.00;99.90;;;;;;8433938;28;20452;-75
2024/02/26 17:48:42;;;;;;;10.23;4.80;;;5.90;99.90;;;;;;8440104;27;20055;-75
2024/02/26 17:52:45;;;;;;;8.68;4.80;;;5.90;99.90;;;;;;8438437;28;20506;-75
2024/02/26 17:56:46;;;;;;;10.95;4.78;;;5.90;99.90;;;;;;8464667;27;20055;-75
2024/02/26 18:00:48;;;;;;;10.77;5.72;;;5.90;99.90;;;;;;8431395;28;20044;-75
2024/02/26 18:04:50;;;;;;;10.35;5.35;;;5.80;99.90;;;;;;8436532;28;20135;-75
2024/02/26 18:08:52;;;;;;;9.98;5.00;;;5.80;99.90;;;;;;8434024;28;20044;-75
2024/02/26 18:12:58;;;;;;;9.32;5.50;;;5.70;99.90;;;;;;8442515;28;20055;-75
2024/02/26 18:17:00;;;;;;;12.45;5.82;;;5.70;99.90;;;;;;8435000;27;20521;-75
2024/02/26 18:21:02;;;;;;;8.50;5.05;;;5.60;99.90;;;;;;8432460;28;20055;-75
2024/02/26 18:25:04;;;;;;;9.15;5.43;;;5.60;99.90;;;;;;8432809;27;20043;-75
2024/02/26 18:29:06;;;;;;;9.23;5.05;;;5.50;99.90;;;;;;8431086;28;20048;-75
2024/02/26 18:33:08;;;;;;;8.90;4.95;;;5.50;99.90;;;;;;8431315;28;20531;-75
2024/02/26 18:37:11;;;;;;;10.40;4.93;;;5.40;99.90;;;;;;8433933;28;20083;-75
2024/02/26 18:41:26;;;;;;;7.53;4.55;;;5.40;99.90;;;;;;8466216;27;20557;-75
2024/02/26 18:45:28;;;;;;;8.65;4.82;;;5.40;99.90;;;;;;8436611;28;20079;-75
2024/02/26 18:49:32;;;;;;;8.63;4.68;;;5.30;99.90;;;;;;8473058;27;20055;-75
2024/02/26 18:53:34;;;;;;;11.48;4.72;;;5.30;99.90;;;;;;8440394;27;20043;-75
2024/02/26 18:57:36;;;;;;;8.98;4.50;;;5.30;99.90;;;;;;8430732;28;20043;-75
2024/02/26 19:01:44;;;;;;;9.80;4.43;;;5.30;99.90;;;;;;8435653;27;20059;-75
2024/02/26 19:05:46;;;;;;;;;;;5.30;99.90;;;;;;8439790;27;20051;-75
2024/02/26 19:09:47;;;;;;;9.02;4.63;;;5.20;99.90;;;;;;8432405;28;19919;-75
2024/02/26 19:13:49;;;;;;;8.07;4.18;;;5.20;99.90;;;;;;8438727;28;20040;-75
2024/02/26 19:17:52;;;;;;;9.05;4.22;;;5.20;99.90;;;;;;8427317;28;20487;-75
2024/02/26 19:21:58;;;;;;;9.75;4.90;;;5.20;99.90;;;;;;8435055;28;20043;-75
2024/02/26 19:26:00;;;;;;;7.47;4.10;;;5.20;99.90;;;;;;8443903;28;20134;-75
2024/02/26 19:30:04;;;;;;;10.80;4.18;;;5.20;99.90;;;;;;8434557;28;20051;-75
2024/02/26 19:34:06;;;;;;;9.02;4.53;;;5.10;99.90;;;;;;8428298;28;20036;-75
2024/02/26 19:38:07;;;;;;;8.02;3.92;;;5.10;99.90;;;;;;8430840;28;20040;-75
2024/02/26 19:42:10;;;;;;;8.82;3.90;;;5.10;99.90;;;;;;8433967;28;20039;-75
2024/02/26 19:46:15;;;;;;;9.05;4.22;;;5.10;99.90;;;;;;8445264;28;20052;-75
2024/02/26 19:51:00;;;;;;;9.10;4.40;;;5.10;99.90;;;;;;8432050;28;20470;-75
2024/02/26 19:55:03;;;;;;;7.97;4.05;;;5.00;99.90;;;;;;8432317;28;20046;-75
2024/02/26 19:59:05;;;;;;;9.27;4.25;;;5.00;99.90;;;;;;8426995;28;20075;-75
2024/02/26 20:03:06;;;;;;;9.90;4.65;;;5.00;99.90;;;;;;8428384;28;20054;-75
2024/02/26 20:07:08;;;;;;;9.18;4.10;;;5.00;99.90;;;;;;8432985;28;20078;-75
2024/02/26 20:11:15;;;;;;;8.80;4.60;;;5.00;99.90;;;;;;8434078;28;20056;-75
2024/02/26 20:15:18;;;;;;;10.25;4.47;;;5.00;99.90;;;;;;8430138;28;20072;-75
2024/02/26 20:19:20;;;;;;;10.38;4.50;;;5.00;99.90;;;;;;8425995;28;20036;-76
2024/02/26 20:23:22;;;;;;;11.13;4.93;;;5.00;99.90;;;;;;8428309;28;20101;-75
2024/02/26 20:27:24;;;;;;;8.20;4.57;;;5.00;99.90;;;;;;8433277;28;20044;-75
2024/02/26 20:31:26;;;;;;;11.65;5.45;;;5.00;99.90;;;;;;8435387;28;20067;-75
2024/02/26 20:35:27;;;;;;;8.57;4.45;;;5.00;99.90;;;;;;8432015;28;20044;-75
2024/02/26 20:39:29;;;;;;;9.55;4.95;;;5.00;99.90;;;;;;8431571;28;20039;-75
2024/02/26 20:43:34;;;;;;;10.60;5.03;;;5.00;99.90;;;;;;8439938;28;20449;-75
2024/02/26 20:47:35;;;;;;;8.98;4.30;;;5.00;99.90;;;;;;8429382;28;20387;-75
2024/02/26 20:51:54;;;;;;;8.70;4.68;;;5.00;99.90;;;;;;8432713;28;20071;-75
2024/02/26 20:55:57;;;;;;;10.27;5.18;;;5.00;99.90;;;;;;8431754;28;20047;-75
2024/02/26 20:59:59;;;;;;;9.27;5.15;;;5.00;99.90;;;;;;8435061;28;20048;-75
2024/02/26 21:04:00;;;;;;;11.43;5.28;;;4.90;99.90;;;;;;8444226;28;20075;-75
2024/02/26 21:08:04;;;;;;;10.32;4.80;;;4.90;99.90;;;;;;8435223;28;20792;-75
2024/02/26 21:12:10;;;;;;;9.40;4.88;;;5.00;99.90;;;;;;8432510;28;20089;-75
2024/02/26 21:16:12;;;;;;;9.77;4.63;;;4.90;99.90;;;;;;8431215;28;20102;-76
2024/02/26 21:20:19;;;;;;;9.00;4.95;;;5.00;99.90;;;;;;8434397;28;20058;-75